PWSweather.com
Personal Weather Stations
Station Observations
WISCHPK61
Green Bay Schmitt Park, Green Bay, WI 54311

Green Bay Schmitt ParkGreen Bay, WI 54311

Lat: 44.514277, Lon: -87.935067

Elevation: 735

Station Type: Acu Rite Pro Weather Center model 02032C

http://greenbayweathercam.com

High Low Average
Temperature 37.9°F3.3°C 31.1°F-0.5°C 35.1°F1.7°C
Dew Point 37.4°F3.0°C 30.9°F-0.6°C 34.8°F1.6°C
Winds 6.9 mph 11.1 kmh Calm Calm 1.0 mph SSE1.6 kmh SSE
Wind Gusts 6.9 mph11.1 kmh -- 2.0 mph3.2 kmh
Humidity 99% 98% 99%
Pressure 29.32 in992.9 mb 28.92 in979.3 mb -
Precipitation 0.22 in5.6 mm - -
Hour Temp Dew Point Humidity Winds Wind Gusts Pressure Precip Precip Rate Daily Precip Total
12:00 AM 31.1°F-0.5°C 30.8°F-0.7°C 99% 1.2 mph S1.9 kmh S 1.2 mph1.9 kmh 29.37 in994.6 mb - 0.00 in0.0 mm 0.01 in0.3 mm
12:15 AM 31.1°F-0.5°C 30.9°F-0.6°C 99% 1.2 mph SE1.9 kmh SE 2.3 mph3.7 kmh 29.35 in993.9 mb - 0.00 in0.0 mm 0.01 in0.3 mm
12:30 AM 31.1°F-0.5°C 30.9°F-0.6°C 99% 2.3 mph SE3.7 kmh SE 3.5 mph5.6 kmh 29.34 in993.6 mb - 0.00 in0.0 mm 0.01 in0.3 mm
12:45 AM 31.1°F-0.5°C 30.9°F-0.6°C 99% 1.2 mph ESE1.9 kmh ESE 2.3 mph3.7 kmh 29.34 in993.6 mb - 0.00 in0.0 mm 0.01 in0.3 mm
01:00 AM 31.1°F-0.5°C 30.9°F-0.6°C 99% 2.3 mph SE3.7 kmh SE 3.5 mph5.6 kmh 29.32 in992.9 mb - 0.00 in0.0 mm 0.00 in0.0 mm
01:15 AM 31.3°F-0.4°C 31.1°F-0.5°C 99% 1.2 mph SE1.9 kmh SE 1.2 mph1.9 kmh 29.32 in992.9 mb - 0.00 in0.0 mm 0.00 in0.0 mm
01:30 AM 31.3°F-0.4°C 31.1°F-0.5°C 99% 2.3 mph SSE3.7 kmh SSE 2.3 mph3.7 kmh 29.31 in992.6 mb - 0.00 in0.0 mm 0.00 in0.0 mm
01:45 AM 31.3°F-0.4°C 31.1°F-0.5°C 99% 1.2 mph SE1.9 kmh SE 1.2 mph1.9 kmh 29.30 in992.2 mb - 0.00 in0.0 mm 0.00 in0.0 mm
02:00 AM 31.3°F-0.4°C 31.1°F-0.5°C 99% 2.3 mph S3.7 kmh S 4.6 mph7.4 kmh 29.29 in991.9 mb - 0.00 in0.0 mm 0.00 in0.0 mm
02:15 AM 31.1°F-0.5°C 30.9°F-0.6°C 99% 1.2 mph E1.9 kmh E 1.2 mph1.9 kmh 29.28 in991.5 mb - 0.00 in0.0 mm 0.00 in0.0 mm
02:30 AM 31.2°F-0.4°C 31.0°F-0.6°C 99% 3.5 mph SSE5.6 kmh SSE 4.6 mph7.4 kmh 29.27 in991.2 mb - 0.00 in0.0 mm 0.00 in0.0 mm
02:45 AM 31.5°F-0.3°C 31.3°F-0.4°C 99% 2.3 mph SE3.7 kmh SE 3.5 mph5.6 kmh 29.27 in991.2 mb - 0.00 in0.0 mm 0.00 in0.0 mm
03:00 AM 31.6°F-0.2°C 31.4°F-0.3°C 99% 1.2 mph SSW1.9 kmh SSW 3.5 mph5.6 kmh 29.26 in990.9 mb - 0.00 in0.0 mm 0.00 in0.0 mm
03:15 AM 32.0°F0.0°C 31.8°F-0.1°C 99% 2.3 mph SE3.7 kmh SE 4.6 mph7.4 kmh 29.25 in990.5 mb - 0.00 in0.0 mm 0.00 in0.0 mm
03:30 AM 32.2°F0.1°C 32.0°F0.0°C 99% 2.3 mph SE3.7 kmh SE 2.3 mph3.7 kmh 29.24 in990.2 mb - 0.00 in0.0 mm 0.00 in0.0 mm
03:45 AM 32.4°F0.2°C 32.2°F0.1°C 99% 3.5 mph S5.6 kmh S 6.9 mph11.1 kmh 29.23 in989.8 mb - 0.00 in0.0 mm 0.00 in0.0 mm
04:00 AM 32.9°F0.5°C 32.7°F0.4°C 99% 5.8 mph SE9.3 kmh SE 6.9 mph11.1 kmh 29.21 in989.2 mb - 0.00 in0.0 mm 0.00 in0.0 mm
04:15 AM 33.1°F0.6°C 32.9°F0.5°C 99% 6.9 mph SE11.1 kmh SE 6.9 mph11.1 kmh 29.20 in988.8 mb - 0.00 in0.0 mm 0.00 in0.0 mm
04:30 AM 33.3°F0.7°C 33.0°F0.6°C 99% 1.2 mph SSE1.9 kmh SSE 1.2 mph1.9 kmh 29.21 in989.2 mb - 0.00 in0.0 mm 0.00 in0.0 mm
04:45 AM 33.4°F0.8°C 33.1°F0.6°C 99% 3.5 mph ESE5.6 kmh ESE 3.5 mph5.6 kmh 29.20 in988.8 mb - 0.00 in0.0 mm 0.00 in0.0 mm
05:00 AM 33.4°F0.8°C 33.1°F0.6°C 99% 2.3 mph ESE3.7 kmh ESE 2.3 mph3.7 kmh 29.19 in988.5 mb - 0.00 in0.0 mm 0.00 in0.0 mm
05:15 AM 33.6°F0.9°C 33.3°F0.7°C 99% 1.2 mph S1.9 kmh S 1.2 mph1.9 kmh 29.19 in988.5 mb - 0.00 in0.0 mm 0.00 in0.0 mm
05:30 AM 33.8°F1.0°C 33.5°F0.8°C 99% Calm Calm -- 29.18 in988.1 mb - 0.00 in0.0 mm 0.00 in0.0 mm
05:45 AM 33.8°F1.0°C 33.5°F0.8°C 99% 2.3 mph S3.7 kmh S 2.3 mph3.7 kmh 29.16 in987.5 mb - 0.00 in0.0 mm 0.00 in0.0 mm
06:00 AM 33.8°F1.0°C 33.5°F0.8°C 99% 2.3 mph SE3.7 kmh SE 3.5 mph5.6 kmh 29.14 in986.8 mb - 0.00 in0.0 mm 0.00 in0.0 mm
06:15 AM 33.4°F0.8°C 33.1°F0.6°C 99% 2.3 mph S3.7 kmh S 2.3 mph3.7 kmh 29.13 in986.5 mb - 0.00 in0.0 mm 0.00 in0.0 mm
06:30 AM 33.4°F0.8°C 33.1°F0.6°C 99% 3.5 mph NW5.6 kmh NW 5.8 mph9.3 kmh 29.14 in986.8 mb - 0.00 in0.0 mm 0.00 in0.0 mm
06:45 AM 33.4°F0.8°C 33.1°F0.6°C 99% 1.2 mph SW1.9 kmh SW 1.2 mph1.9 kmh 29.15 in987.1 mb - 0.00 in0.0 mm 0.00 in0.0 mm
07:00 AM 33.4°F0.8°C 33.1°F0.6°C 99% 2.3 mph S3.7 kmh S 3.5 mph5.6 kmh 29.15 in987.1 mb - 0.00 in0.0 mm 0.00 in0.0 mm
07:15 AM 33.4°F0.8°C 33.1°F0.6°C 99% Calm Calm 5.8 mph9.3 kmh 29.14 in986.8 mb - 0.00 in0.0 mm 0.00 in0.0 mm
07:30 AM 33.4°F0.8°C 33.1°F0.6°C 99% 1.2 mph ESE1.9 kmh ESE -- 29.13 in986.5 mb - 0.00 in0.0 mm 0.00 in0.0 mm
07:45 AM 33.6°F0.9°C 33.3°F0.7°C 99% 1.2 mph SSE1.9 kmh SSE 2.3 mph3.7 kmh 29.12 in986.1 mb - 0.00 in0.0 mm 0.00 in0.0 mm
08:00 AM 33.6°F0.9°C 33.3°F0.7°C 99% 1.2 mph SSE1.9 kmh SSE 1.2 mph1.9 kmh 29.12 in986.1 mb - 0.00 in0.0 mm 0.00 in0.0 mm
08:15 AM 33.8°F1.0°C 33.5°F0.8°C 99% 1.2 mph SE1.9 kmh SE 1.2 mph1.9 kmh 29.10 in985.4 mb - 0.01 in0.3 mm 0.01 in0.3 mm
08:30 AM 34.0°F1.1°C 33.7°F0.9°C 99% 2.3 mph S3.7 kmh S 1.2 mph1.9 kmh 29.09 in985.1 mb - 0.01 in0.3 mm 0.02 in0.5 mm
08:45 AM 34.0°F1.1°C 33.7°F0.9°C 99% 1.2 mph SE1.9 kmh SE 1.2 mph1.9 kmh 29.09 in985.1 mb - 0.01 in0.3 mm 0.03 in0.8 mm
09:00 AM 34.0°F1.1°C 33.8°F1.0°C 99% 4.6 mph SE7.4 kmh SE 4.6 mph7.4 kmh 29.07 in984.4 mb - 0.02 in0.5 mm 0.04 in1.0 mm
09:15 AM 34.2°F1.2°C 33.9°F1.1°C 99% 2.3 mph SSE3.7 kmh SSE 4.6 mph7.4 kmh 29.07 in984.4 mb - 0.00 in0.0 mm 0.04 in1.0 mm
09:30 AM 34.3°F1.3°C 34.0°F1.1°C 99% 1.2 mph S1.9 kmh S 1.2 mph1.9 kmh 29.07 in984.4 mb - 0.02 in0.5 mm 0.06 in1.5 mm
09:45 AM 34.5°F1.4°C 34.2°F1.2°C 99% 2.3 mph SSE3.7 kmh SSE 5.8 mph9.3 kmh 29.07 in984.4 mb - 0.00 in0.0 mm 0.06 in1.5 mm
10:00 AM 34.9°F1.6°C 34.6°F1.4°C 99% 2.3 mph SE3.7 kmh SE 4.6 mph7.4 kmh 29.06 in984.1 mb - 0.02 in0.5 mm 0.08 in2.0 mm
10:15 AM 35.1°F1.7°C 34.8°F1.6°C 99% 2.3 mph S3.7 kmh S 5.8 mph9.3 kmh 29.06 in984.1 mb - 0.00 in0.0 mm 0.08 in2.0 mm
10:30 AM 35.1°F1.7°C 34.8°F1.6°C 99% Calm Calm -- 29.06 in984.1 mb - 0.02 in0.5 mm 0.10 in2.5 mm
10:45 AM 35.4°F1.9°C 35.1°F1.7°C 99% 1.2 mph SE1.9 kmh SE 2.3 mph3.7 kmh 29.06 in984.1 mb - 0.00 in0.0 mm 0.10 in2.5 mm
11:00 AM 35.5°F1.9°C 35.3°F1.8°C 99% 1.2 mph SSE1.9 kmh SSE 2.3 mph3.7 kmh 29.06 in984.1 mb - 0.01 in0.3 mm 0.11 in2.8 mm
11:15 AM 35.8°F2.1°C 35.5°F1.9°C 99% Calm Calm 1.2 mph1.9 kmh 29.06 in984.1 mb - 0.01 in0.3 mm 0.12 in3.0 mm
11:30 AM 36.1°F2.3°C 35.8°F2.1°C 99% Calm Calm -- 29.05 in983.7 mb - 0.00 in0.0 mm 0.12 in3.0 mm
11:45 AM 36.5°F2.5°C 36.2°F2.3°C 99% 2.3 mph ESE3.7 kmh ESE 2.3 mph3.7 kmh 29.04 in983.4 mb - 0.01 in0.3 mm 0.13 in3.3 mm
12:00 PM 36.9°F2.7°C 36.6°F2.6°C 99% 1.2 mph S1.9 kmh S 3.5 mph5.6 kmh 29.03 in983.1 mb - 0.01 in0.3 mm 0.14 in3.6 mm
12:15 PM 37.2°F2.9°C 36.9°F2.7°C 99% 1.2 mph E1.9 kmh E 3.5 mph5.6 kmh 29.02 in982.7 mb - 0.00 in0.0 mm 0.14 in3.6 mm
12:30 PM 37.8°F3.2°C 37.3°F2.9°C 98% 1.2 mph S1.9 kmh S 1.2 mph1.9 kmh 29.00 in982.1 mb - 0.02 in0.5 mm 0.16 in4.1 mm
12:45 PM 37.9°F3.3°C 37.4°F3.0°C 98% 1.2 mph ESE1.9 kmh ESE 3.5 mph5.6 kmh 28.99 in981.7 mb - 0.00 in0.0 mm 0.16 in4.1 mm
01:00 PM 37.9°F3.3°C 37.4°F3.0°C 98% 1.2 mph NNE1.9 kmh NNE 2.3 mph3.7 kmh 28.99 in981.7 mb - 0.01 in0.3 mm 0.17 in4.3 mm
01:15 PM 37.8°F3.2°C 37.3°F2.9°C 98% Calm Calm 1.2 mph1.9 kmh 28.98 in981.4 mb - 0.01 in0.3 mm 0.18 in4.6 mm
01:30 PM 37.6°F3.1°C 37.1°F2.8°C 98% Calm Calm 2.3 mph3.7 kmh 28.98 in981.4 mb - 0.00 in0.0 mm 0.18 in4.6 mm
01:45 PM 37.4°F3.0°C 36.9°F2.7°C 98% 3.5 mph SSE5.6 kmh SSE 3.5 mph5.6 kmh 28.97 in981.0 mb - 0.00 in0.0 mm 0.18 in4.6 mm
02:00 PM 37.0°F2.8°C 36.5°F2.5°C 98% 2.3 mph S3.7 kmh S 4.6 mph7.4 kmh 28.97 in981.0 mb - 0.01 in0.3 mm 0.19 in4.8 mm
02:15 PM 37.0°F2.8°C 36.5°F2.5°C 98% 2.3 mph ENE3.7 kmh ENE 5.8 mph9.3 kmh 28.95 in980.4 mb - 0.01 in0.3 mm 0.20 in5.1 mm
02:30 PM 37.2°F2.9°C 36.7°F2.6°C 98% 3.5 mph WSW5.6 kmh WSW 2.3 mph3.7 kmh 28.95 in980.4 mb - 0.00 in0.0 mm 0.20 in5.1 mm
02:45 PM 37.0°F2.8°C 36.5°F2.5°C 98% 3.5 mph ESE5.6 kmh ESE 3.5 mph5.6 kmh 28.95 in980.4 mb - 0.00 in0.0 mm 0.20 in5.1 mm
03:00 PM 37.0°F2.8°C 36.5°F2.5°C 98% Calm Calm 4.6 mph7.4 kmh 28.94 in980.0 mb - 0.00 in0.0 mm 0.20 in5.1 mm
03:15 PM 37.0°F2.8°C 36.7°F2.6°C 99% 1.2 mph S1.9 kmh S 1.2 mph1.9 kmh 28.95 in980.4 mb - 0.01 in0.3 mm 0.21 in5.3 mm
03:30 PM 37.0°F2.8°C 36.7°F2.6°C 99% 1.2 mph S1.9 kmh S 1.2 mph1.9 kmh 28.94 in980.0 mb - 0.00 in0.0 mm 0.21 in5.3 mm
03:45 PM 37.0°F2.8°C 36.7°F2.6°C 99% Calm Calm 3.5 mph5.6 kmh 28.94 in980.0 mb - 0.01 in0.3 mm 0.22 in5.6 mm
04:00 PM 37.0°F2.8°C 36.7°F2.6°C 99% 2.3 mph N3.7 kmh N 4.6 mph7.4 kmh 28.93 in979.7 mb - 0.00 in0.0 mm 0.22 in5.6 mm
04:15 PM 37.0°F2.8°C 36.7°F2.6°C 99% Calm Calm -- 28.94 in980.0 mb - 0.00 in0.0 mm 0.22 in5.6 mm
04:30 PM 36.9°F2.7°C 36.6°F2.6°C 99% 1.2 mph SE1.9 kmh SE 4.6 mph7.4 kmh 28.94 in980.0 mb - 0.00 in0.0 mm 0.22 in5.6 mm
04:45 PM 36.7°F2.6°C 36.4°F2.4°C 99% Calm Calm -- 28.93 in979.7 mb - 0.00 in0.0 mm 0.22 in5.6 mm
05:00 PM 36.7°F2.6°C 36.4°F2.4°C 99% 2.3 mph SSW3.7 kmh SSW 2.3 mph3.7 kmh 28.94 in980.0 mb - 0.00 in0.0 mm 0.22 in5.6 mm
05:15 PM 36.5°F2.5°C 36.2°F2.3°C 99% Calm Calm 1.2 mph1.9 kmh 28.94 in980.0 mb - 0.00 in0.0 mm 0.22 in5.6 mm
05:30 PM 36.5°F2.5°C 36.2°F2.3°C 99% Calm Calm 1.2 mph1.9 kmh 28.94 in980.0 mb - 0.00 in0.0 mm 0.22 in5.6 mm
05:45 PM 36.5°F2.5°C 36.2°F2.3°C 99% Calm Calm 2.3 mph3.7 kmh 28.94 in980.0 mb - 0.00 in0.0 mm 0.22 in5.6 mm
06:00 PM 36.5°F2.5°C 36.2°F2.3°C 99% Calm Calm -- 28.93 in979.7 mb - 0.00 in0.0 mm 0.22 in5.6 mm
06:15 PM 36.3°F2.4°C 36.0°F2.2°C 99% Calm Calm 1.2 mph1.9 kmh 28.94 in980.0 mb - 0.00 in0.0 mm 0.22 in5.6 mm
06:30 PM 36.3°F2.4°C 36.0°F2.2°C 99% Calm Calm -- 28.95 in980.4 mb - 0.00 in0.0 mm 0.22 in5.6 mm
06:45 PM 36.3°F2.4°C 36.0°F2.2°C 99% Calm Calm -- 28.95 in980.4 mb - 0.00 in0.0 mm 0.22 in5.6 mm
07:00 PM 36.3°F2.4°C 36.0°F2.2°C 99% Calm Calm -- 28.95 in980.4 mb - 0.00 in0.0 mm 0.22 in5.6 mm
07:15 PM 36.3°F2.4°C 36.0°F2.2°C 99% Calm Calm -- 28.95 in980.4 mb - 0.00 in0.0 mm 0.22 in5.6 mm
07:30 PM 36.5°F2.5°C 36.2°F2.3°C 99% Calm Calm -- 28.95 in980.4 mb - 0.00 in0.0 mm 0.22 in5.6 mm
07:45 PM 36.3°F2.4°C 36.0°F2.2°C 99% Calm Calm -- 28.96 in980.7 mb - 0.00 in0.0 mm 0.22 in5.6 mm
08:00 PM 36.3°F2.4°C 36.0°F2.2°C 99% Calm Calm -- 28.95 in980.4 mb - 0.00 in0.0 mm 0.22 in5.6 mm
08:15 PM 36.1°F2.3°C 35.8°F2.1°C 99% Calm Calm -- 28.95 in980.4 mb - 0.00 in0.0 mm 0.22 in5.6 mm
08:30 PM 35.8°F2.1°C 35.5°F1.9°C 99% Calm Calm -- 28.96 in980.7 mb - 0.00 in0.0 mm 0.22 in5.6 mm
08:45 PM 35.6°F2.0°C 35.3°F1.8°C 99% Calm Calm -- 28.95 in980.4 mb - 0.00 in0.0 mm 0.22 in5.6 mm
09:00 PM 35.4°F1.9°C 35.1°F1.7°C 99% Calm Calm -- 28.95 in980.4 mb - 0.00 in0.0 mm 0.22 in5.6 mm
09:15 PM 35.2°F1.8°C 34.9°F1.6°C 99% Calm Calm -- 28.95 in980.4 mb - 0.00 in0.0 mm 0.22 in5.6 mm
09:30 PM 35.2°F1.8°C 34.9°F1.6°C 99% Calm Calm -- 28.94 in980.0 mb - 0.00 in0.0 mm 0.22 in5.6 mm
09:45 PM 35.4°F1.9°C 35.1°F1.7°C 99% Calm Calm -- 28.94 in980.0 mb - 0.00 in0.0 mm 0.22 in5.6 mm
10:00 PM 35.4°F1.9°C 35.1°F1.7°C 99% Calm Calm -- 28.94 in980.0 mb - 0.00 in0.0 mm 0.22 in5.6 mm
10:15 PM 35.6°F2.0°C 35.3°F1.8°C 99% Calm Calm -- 28.93 in979.7 mb - 0.00 in0.0 mm 0.22 in5.6 mm
10:30 PM 35.8°F2.1°C 35.5°F1.9°C 99% Calm Calm -- 28.93 in979.7 mb - 0.00 in0.0 mm 0.22 in5.6 mm
10:45 PM 36.0°F2.2°C 35.7°F2.1°C 99% Calm Calm -- 28.93 in979.7 mb - 0.00 in0.0 mm 0.22 in5.6 mm
11:00 PM 36.1°F2.3°C 35.8°F2.1°C 99% Calm Calm 1.2 mph1.9 kmh 28.93 in979.7 mb - 0.00 in0.0 mm 0.22 in5.6 mm
11:15 PM 36.3°F2.4°C 36.0°F2.2°C 99% Calm Calm -- 28.93 in979.7 mb - 0.00 in0.0 mm 0.22 in5.6 mm
11:30 PM 36.3°F2.4°C 36.0°F2.2°C 99% 1.2 mph SE1.9 kmh SE 1.2 mph1.9 kmh 28.93 in979.7 mb - 0.00 in0.0 mm 0.22 in5.6 mm
11:45 PM 36.3°F2.4°C 36.0°F2.2°C 99% Calm Calm -- 28.93 in979.7 mb - 0.00 in0.0 mm 0.22 in5.6 mm